Time;durP1;ratioP1;P1;durP2;ratioP2;P2;SDS_P1;SDS_P2;PMS_P1;PMS_P2;Temp;Humidity;BMP_temperature;BMP_pressure;BME280_temperature;BME280_humidity;BME280_pressure;Samples;Min_cycle;Max_cycle;Signal;HPM_P1;HPM_P2
2023/10/26 04:05:47;;;;;;;0.30;0.20;;;12.00;99.90;;;;;;5649196;23;20448;-70
2023/10/26 04:08:13;;;;;;;0.30;0.30;;;12.00;99.90;;;;;;5012770;28;20401;-70
2023/10/26 04:10:38;;;;;;;0.30;0.20;;;12.00;99.90;;;;;;5012811;28;20166;-70
2023/10/26 04:13:04;;;;;;;0.30;0.30;;;11.90;99.90;;;;;;5012923;28;20177;-69
2023/10/26 04:15:29;;;;;;;0.30;0.20;;;11.90;99.90;;;;;;5004308;28;20671;-69
2023/10/26 04:17:55;;;;;;;0.30;0.30;;;11.80;99.90;;;;;;4992317;28;20431;-70
2023/10/26 04:20:21;;;;;;;0.30;0.30;;;11.70;99.90;;;;;;4993355;28;20707;-70
2023/10/26 04:22:47;;;;;;;0.30;0.20;;;11.70;99.90;;;;;;4992988;28;20216;-70
2023/10/26 04:25:13;;;;;;;0.30;0.30;;;11.60;99.90;;;;;;4992676;28;20196;-70
2023/10/26 04:27:38;;;;;;;0.30;0.30;;;11.50;99.90;;;;;;4992895;28;20185;-69
2023/10/26 04:30:05;;;;;;;0.30;0.30;;;11.40;99.90;;;;;;4992879;28;20714;-70
2023/10/26 04:32:30;;;;;;;0.30;0.30;;;11.30;99.90;;;;;;4993304;28;20526;-70
2023/10/26 04:34:56;;;;;;;0.30;0.30;;;11.20;99.90;;;;;;4991711;28;20433;-70
2023/10/26 04:37:22;;;;;;;0.30;0.20;;;11.20;99.90;;;;;;4993064;28;20170;-70
2023/10/26 04:39:47;;;;;;;0.30;0.30;;;11.20;99.90;;;;;;4993237;28;20204;-70
2023/10/26 04:42:13;;;;;;;0.30;0.30;;;11.20;99.90;;;;;;4975604;28;20205;-70
2023/10/26 04:44:41;;;;;;;0.30;0.30;;;11.20;99.90;;;;;;4992639;28;20194;-70
2023/10/26 04:47:07;;;;;;;0.30;0.30;;;11.20;99.90;;;;;;4992920;28;20179;-70
2023/10/26 04:49:36;;;;;;;0.30;0.30;;;11.20;99.90;;;;;;4992684;28;20924;-69
2023/10/26 04:52:01;;;;;;;0.30;0.30;;;11.20;99.90;;;;;;4993192;28;20184;-68
2023/10/26 04:54:27;;;;;;;0.30;0.30;;;11.20;99.90;;;;;;4975128;28;20245;-69
2023/10/26 04:56:53;;;;;;;0.30;0.30;;;11.10;99.90;;;;;;4978459;28;20426;-70
2023/10/26 04:59:19;;;;;;;0.30;0.30;;;11.10;99.90;;;;;;4996270;28;20200;-70
2023/10/26 05:01:44;;;;;;;0.30;0.30;;;11.10;99.90;;;;;;4995988;28;20281;-70
2023/10/26 05:04:10;;;;;;;0.30;0.30;;;11.00;99.90;;;;;;4996192;28;20533;-70
2023/10/26 05:06:36;;;;;;;0.30;0.20;;;11.00;99.90;;;;;;4995541;28;20203;-71
2023/10/26 05:09:03;;;;;;;0.35;0.35;;;11.00;99.90;;;;;;4978722;28;20171;-70
2023/10/26 05:11:29;;;;;;;0.30;0.20;;;11.00;99.90;;;;;;4978727;28;20679;-70
2023/10/26 05:13:55;;;;;;;0.30;0.30;;;11.00;99.90;;;;;;4996164;28;20250;-70
2023/10/26 05:16:21;;;;;;;0.30;0.30;;;10.90;99.90;;;;;;4996231;28;20188;-70
2023/10/26 05:18:46;;;;;;;0.30;0.20;;;10.90;99.90;;;;;;4995299;28;20172;-70
2023/10/26 05:21:12;;;;;;;0.40;0.40;;;11.00;99.90;;;;;;4990199;28;20278;-70
2023/10/26 05:23:39;;;;;;;0.30;0.20;;;10.90;99.90;;;;;;4978862;28;20199;-69
2023/10/26 05:26:05;;;;;;;0.30;0.30;;;10.90;99.90;;;;;;4995565;28;20183;-70
2023/10/26 05:28:30;;;;;;;0.33;0.33;;;10.90;99.90;;;;;;4986534;28;20267;-68
2023/10/26 05:30:56;;;;;;;0.30;0.20;;;10.80;99.90;;;;;;4976634;28;20598;-70
2023/10/26 05:33:22;;;;;;;0.30;0.30;;;10.80;99.90;;;;;;4996062;28;20186;-69
2023/10/26 05:35:49;;;;;;;0.30;0.20;;;10.80;99.90;;;;;;4977962;28;20688;-69
2023/10/26 05:38:18;;;;;;;0.40;0.40;;;10.80;99.90;;;;;;4995315;28;20183;-69
2023/10/26 05:40:55;;;;;;;0.30;0.30;;;10.80;99.90;;;;;;4994568;28;20172;-70
2023/10/26 05:43:21;;;;;;;0.30;0.30;;;10.80;99.90;;;;;;4976122;28;20203;-69
2023/10/26 05:45:47;;;;;;;0.30;0.30;;;10.70;99.90;;;;;;4962917;28;20307;-66
2023/10/26 05:48:12;;;;;;;0.30;0.30;;;10.70;99.90;;;;;;4994883;28;20180;-69
2023/10/26 05:50:41;;;;;;;0.30;0.20;;;10.70;99.90;;;;;;4995616;28;20164;-69
2023/10/26 05:53:08;;;;;;;0.30;0.20;;;10.70;99.90;;;;;;4995057;28;20175;-68
2023/10/26 05:55:34;;;;;;;0.30;0.28;;;10.70;99.90;;;;;;4995173;28;20262;-71
2023/10/26 05:57:59;;;;;;;0.30;0.30;;;10.80;99.90;;;;;;4994366;28;20168;-67
2023/10/26 06:00:25;;;;;;;0.30;0.30;;;10.80;99.90;;;;;;4976193;28;20239;-69
2023/10/26 06:02:52;;;;;;;0.30;0.30;;;10.80;99.90;;;;;;4993987;28;20219;-67
2023/10/26 06:05:18;;;;;;;0.30;0.30;;;10.80;99.90;;;;;;4977935;28;20192;-69
2023/10/26 06:07:43;;;;;;;0.30;0.20;;;10.90;99.90;;;;;;4992805;28;20465;-67
2023/10/26 06:10:10;;;;;;;0.30;0.20;;;10.90;99.90;;;;;;4993154;28;20174;-68
2023/10/26 06:12:36;;;;;;;0.30;0.30;;;10.90;99.90;;;;;;4994152;28;20622;-68
2023/10/26 06:15:01;;;;;;;0.30;0.30;;;11.00;99.90;;;;;;4993582;28;20441;-68
2023/10/26 06:17:27;;;;;;;0.30;0.30;;;11.00;99.90;;;;;;4994553;28;20222;-70
2023/10/26 06:19:53;;;;;;;0.30;0.30;;;11.10;99.90;;;;;;4995253;28;20590;-66
2023/10/26 06:22:18;;;;;;;0.30;0.30;;;11.10;99.90;;;;;;4976444;28;20538;-68
2023/10/26 06:24:44;;;;;;;0.30;0.30;;;11.20;99.90;;;;;;4994174;28;20176;-68
2023/10/26 06:27:11;;;;;;;0.30;0.30;;;11.30;99.90;;;;;;4994532;28;20171;-69
2023/10/26 06:29:36;;;;;;;0.30;0.30;;;11.40;99.90;;;;;;4991635;28;20165;-68
2023/10/26 06:32:02;;;;;;;0.30;0.30;;;11.50;99.90;;;;;;4988602;28;20790;-67
2023/10/26 06:34:29;;;;;;;0.30;0.30;;;11.60;99.90;;;;;;4993924;28;20180;-65
2023/10/26 06:36:54;;;;;;;0.30;0.30;;;11.60;99.90;;;;;;4994415;28;20204;-68
2023/10/26 06:39:20;;;;;;;0.30;0.30;;;11.70;99.90;;;;;;4994512;28;20497;-66
2023/10/26 06:41:46;;;;;;;0.30;0.30;;;11.80;99.90;;;;;;4993849;28;20285;-67
2023/10/26 06:44:11;;;;;;;0.30;0.20;;;11.80;99.90;;;;;;4994100;28;20181;-66
2023/10/26 06:46:37;;;;;;;0.30;0.30;;;11.90;99.90;;;;;;4982005;28;20301;-67
2023/10/26 06:49:02;;;;;;;0.30;0.30;;;12.00;99.90;;;;;;4985203;28;20162;-67
2023/10/26 06:51:29;;;;;;;0.30;0.30;;;12.00;99.90;;;;;;4994250;28;20183;-66
2023/10/26 06:53:55;;;;;;;0.30;0.30;;;12.00;99.90;;;;;;4967951;28;20643;-69
2023/10/26 06:56:21;;;;;;;0.50;0.50;;;12.10;99.90;;;;;;4980723;28;20505;-67
2023/10/26 06:58:47;;;;;;;0.30;0.30;;;12.20;99.90;;;;;;4979644;28;20293;-66
2023/10/26 07:01:13;;;;;;;0.30;0.30;;;12.20;99.90;;;;;;4994056;28;20597;-67
2023/10/26 07:03:39;;;;;;;0.30;0.30;;;12.20;99.90;;;;;;4993217;28;20505;-69
2023/10/26 07:06:06;;;;;;;0.30;0.20;;;12.30;99.90;;;;;;4993230;28;20277;-64
2023/10/26 07:08:33;;;;;;;0.30;0.20;;;12.30;99.90;;;;;;4994330;28;20918;-70
2023/10/26 07:11:03;;;;;;;0.30;0.30;;;12.30;99.90;;;;;;4987601;28;20227;-67
2023/10/26 07:13:30;;;;;;;0.40;0.40;;;12.30;99.90;;;;;;4994251;28;20428;-67
2023/10/26 07:15:59;;;;;;;0.30;0.30;;;12.40;99.90;;;;;;4976403;28;20442;-68
2023/10/26 07:18:26;;;;;;;0.30;0.30;;;12.40;99.90;;;;;;4993067;28;20508;-68
2023/10/26 07:20:51;;;;;;;0.30;0.30;;;12.40;99.90;;;;;;4993241;28;20468;-67
2023/10/26 07:23:17;;;;;;;0.30;0.30;;;12.50;99.90;;;;;;4993969;28;20473;-70
2023/10/26 07:25:43;;;;;;;0.30;0.30;;;12.50;99.90;;;;;;4970393;28;20199;-68
2023/10/26 07:28:09;;;;;;;0.30;0.30;;;12.50;99.90;;;;;;4958592;28;20809;-69
2023/10/26 07:30:42;;;;;;;0.30;0.30;;;12.60;99.90;;;;;;4993658;28;20183;-68
2023/10/26 07:33:08;;;;;;;0.30;0.30;;;12.70;99.90;;;;;;4993523;28;20240;-67
2023/10/26 07:35:42;;;;;;;0.30;0.20;;;12.80;99.90;;;;;;4992544;28;20446;-70
2023/10/26 07:38:09;;;;;;;0.30;0.30;;;12.90;99.90;;;;;;4993959;28;20421;-68
2023/10/26 07:40:36;;;;;;;0.30;0.30;;;13.00;99.90;;;;;;4993034;28;20427;-69
2023/10/26 07:43:01;;;;;;;0.30;0.30;;;13.00;99.90;;;;;;4993426;28;20859;-66
2023/10/26 07:45:27;;;;;;;0.33;0.33;;;13.00;99.90;;;;;;4993094;28;20440;-67
2023/10/26 07:47:55;;;;;;;0.30;0.20;;;13.00;99.90;;;;;;4993544;28;20544;-67
2023/10/26 07:50:22;;;;;;;0.30;0.30;;;13.00;99.90;;;;;;4993756;28;20448;-69
2023/10/26 07:52:47;;;;;;;0.30;0.20;;;13.00;99.90;;;;;;4993693;28;20449;-66
2023/10/26 07:55:13;;;;;;;0.30;0.20;;;13.10;99.90;;;;;;4993533;28;20438;-70
2023/10/26 07:57:41;;;;;;;0.30;0.20;;;13.00;99.90;;;;;;4976629;28;20178;-67
2023/10/26 08:00:08;;;;;;;0.30;0.30;;;13.00;99.90;;;;;;4994096;28;20525;-70
2023/10/26 08:02:33;;;;;;;0.30;0.30;;;13.00;99.90;;;;;;4993576;28;20812;-67
2023/10/26 08:04:59;;;;;;;0.30;0.30;;;12.80;99.90;;;;;;4993624;28;20440;-69
2023/10/26 08:07:25;;;;;;;0.30;0.30;;;12.80;99.90;;;;;;4993913;28;20195;-67
2023/10/26 08:09:50;;;;;;;0.30;0.20;;;12.80;99.90;;;;;;4993887;28;20178;-68
2023/10/26 08:12:16;;;;;;;0.30;0.20;;;12.80;99.90;;;;;;4993417;28;20644;-69
2023/10/26 08:14:42;;;;;;;0.30;0.30;;;12.80;99.90;;;;;;4992905;28;20178;-67
2023/10/26 08:17:07;;;;;;;0.30;0.30;;;12.90;99.90;;;;;;4993510;28;20232;-69
2023/10/26 08:19:33;;;;;;;0.30;0.30;;;12.90;99.90;;;;;;4993299;28;20193;-67
2023/10/26 08:21:58;;;;;;;0.30;0.30;;;12.80;99.90;;;;;;4992676;28;20272;-69
2023/10/26 08:24:24;;;;;;;0.30;0.30;;;12.90;99.90;;;;;;4992912;28;20178;-68
2023/10/26 08:26:51;;;;;;;0.30;0.30;;;12.90;99.90;;;;;;4993310;28;20552;-69
2023/10/26 08:29:16;;;;;;;0.30;0.30;;;13.00;99.90;;;;;;4993292;28;20175;-68
2023/10/26 08:31:42;;;;;;;0.30;0.20;;;13.00;99.90;;;;;;4996091;28;20432;-69
2023/10/26 08:34:07;;;;;;;0.33;0.33;;;13.00;99.90;;;;;;4996143;28;20211;-69
2023/10/26 08:36:33;;;;;;;0.30;0.20;;;13.10;99.90;;;;;;4986385;28;20215;-69
2023/10/26 08:38:59;;;;;;;0.30;0.30;;;13.10;99.90;;;;;;4996692;28;20179;-69
2023/10/26 08:41:24;;;;;;;0.30;0.30;;;13.20;99.90;;;;;;4994824;28;20230;-70
2023/10/26 08:43:50;;;;;;;0.30;0.20;;;13.30;99.90;;;;;;4977077;28;20200;-69
2023/10/26 08:46:18;;;;;;;0.30;0.30;;;13.40;99.90;;;;;;4982725;28;20207;-67
2023/10/26 08:48:46;;;;;;;0.30;0.30;;;13.50;99.90;;;;;;4995658;28;20864;-69
2023/10/26 08:51:12;;;;;;;0.30;0.30;;;13.60;99.90;;;;;;4996254;28;20857;-71
2023/10/26 08:53:39;;;;;;;0.30;0.30;;;13.70;99.90;;;;;;4996265;28;20445;-72
2023/10/26 08:56:09;;;;;;;0.30;0.30;;;13.80;99.90;;;;;;4995963;28;20438;-70
2023/10/26 08:58:35;;;;;;;0.30;0.20;;;13.90;99.90;;;;;;4996312;28;20859;-71
2023/10/26 09:01:04;;;;;;;0.30;0.30;;;14.00;99.90;;;;;;4978440;28;20450;-70
2023/10/26 09:03:36;;;;;;;0.30;0.30;;;14.10;99.90;;;;;;4978644;28;20454;-71
2023/10/26 09:06:02;;;;;;;0.30;0.30;;;14.10;99.90;;;;;;4995300;28;20463;-70
2023/10/26 09:08:31;;;;;;;0.30;0.27;;;14.20;99.90;;;;;;4991910;28;20419;-70
2023/10/26 09:10:57;;;;;;;0.30;0.20;;;14.10;99.90;;;;;;4996202;28;20473;-69
2023/10/26 09:13:27;;;;;;;0.30;0.30;;;14.00;99.90;;;;;;4996505;28;20454;-72
2023/10/26 09:15:57;;;;;;;0.30;0.20;;;13.90;99.90;;;;;;4995019;28;20438;-71
2023/10/26 09:18:24;;;;;;;0.30;0.30;;;13.80;99.90;;;;;;4978443;28;20426;-72
2023/10/26 09:21:03;;;;;;;0.30;0.20;;;13.80;99.90;;;;;;4995516;28;20448;-71
2023/10/26 09:23:30;;;;;;;0.30;0.30;;;13.80;99.90;;;;;;4996313;28;20465;-71
2023/10/26 09:26:00;;;;;;;0.30;0.30;;;13.70;99.90;;;;;;4973730;28;20435;-71
2023/10/26 09:28:27;;;;;;;0.30;0.20;;;13.70;99.90;;;;;;4978042;28;20505;-72
2023/10/26 09:31:01;;;;;;;0.30;0.20;;;13.70;99.90;;;;;;4996017;28;20395;-71
2023/10/26 09:33:27;;;;;;;0.30;0.20;;;13.70;99.90;;;;;;4994721;28;20740;-71
2023/10/26 09:35:53;;;;;;;0.30;0.20;;;13.70;99.90;;;;;;4995084;28;20539;-70
2023/10/26 09:38:36;;;;;;;0.30;0.20;;;13.70;99.90;;;;;;4977462;28;20239;-70
2023/10/26 09:41:05;;;;;;;0.30;0.27;;;13.60;99.90;;;;;;4995525;28;20422;-71
2023/10/26 09:43:30;;;;;;;0.30;0.30;;;13.60;99.90;;;;;;4995421;28;20451;-69
2023/10/26 09:45:56;;;;;;;0.30;0.20;;;13.60;99.90;;;;;;4994466;28;20445;-69
2023/10/26 09:48:23;;;;;;;0.30;0.20;;;13.60;99.90;;;;;;4983823;28;20255;-67
2023/10/26 09:50:49;;;;;;;0.30;0.20;;;13.40;99.90;;;;;;4981953;28;20418;-67
2023/10/26 09:53:18;;;;;;;0.30;0.20;;;13.20;99.90;;;;;;4981485;28;20459;-68
2023/10/26 09:55:45;;;;;;;0.30;0.20;;;13.20;99.90;;;;;;4992316;28;20444;-68
2023/10/26 09:58:11;;;;;;;0.40;0.37;;;13.10;99.90;;;;;;4993840;28;20425;-65
2023/10/26 10:00:37;;;;;;;0.30;0.30;;;13.00;99.90;;;;;;4976287;28;20744;-66
2023/10/26 10:03:13;;;;;;;0.30;0.20;;;12.90;99.90;;;;;;4989702;28;20484;-64
2023/10/26 10:05:40;;;;;;;0.30;0.30;;;12.80;99.90;;;;;;4991127;28;20289;-67
2023/10/26 10:08:06;;;;;;;0.30;0.30;;;12.70;99.90;;;;;;4978252;28;20759;-63
2023/10/26 10:10:33;;;;;;;0.30;0.20;;;12.60;99.90;;;;;;4995306;28;20392;-66
2023/10/26 10:12:58;;;;;;;0.30;0.20;;;12.50;99.90;;;;;;4977823;28;20421;-66
2023/10/26 10:15:39;;;;;;;0.30;0.20;;;12.40;99.90;;;;;;4992992;28;20480;-64
2023/10/26 10:18:07;;;;;;;0.30;0.30;;;12.40;99.90;;;;;;4975499;28;20212;-63
2023/10/26 10:20:35;;;;;;;0.30;0.30;;;12.30;99.90;;;;;;4994809;28;20788;-64
2023/10/26 10:23:02;;;;;;;0.30;0.30;;;12.20;99.90;;;;;;4994938;28;20456;-63
2023/10/26 10:25:50;;;;;;;0.30;0.30;;;12.20;99.90;;;;;;4993837;28;20437;-63
2023/10/26 10:28:19;;;;;;;0.30;0.30;;;12.20;99.90;;;;;;4963537;28;20462;-64
2023/10/26 10:30:58;;;;;;;0.30;0.30;;;12.20;99.90;;;;;;4980856;28;20454;-64
2023/10/26 10:33:25;;;;;;;0.30;0.30;;;12.10;99.90;;;;;;4986217;28;20461;-64
2023/10/26 10:36:01;;;;;;;0.30;0.20;;;12.10;99.90;;;;;;4994567;28;20482;-63
2023/10/26 10:38:29;;;;;;;0.30;0.30;;;12.00;99.90;;;;;;4995382;28;20448;-64
2023/10/26 10:40:54;;;;;;;0.30;0.20;;;12.00;99.90;;;;;;4995113;28;20488;-63
2023/10/26 10:43:46;;;;;;;0.30;0.30;;;12.10;99.90;;;;;;4994530;28;20556;-65
2023/10/26 10:46:23;;;;;;;0.30;0.30;;;12.10;99.90;;;;;;4994433;28;20200;-64
2023/10/26 10:49:06;;;;;;;0.30;0.30;;;12.20;99.90;;;;;;4994927;28;20425;-65
2023/10/26 10:51:37;;;;;;;0.30;0.20;;;12.20;99.90;;;;;;4994948;28;20432;-65
2023/10/26 10:54:17;;;;;;;0.30;0.30;;;12.20;99.90;;;;;;4992998;28;20422;-64
2023/10/26 10:56:46;;;;;;;0.30;0.30;;;12.20;99.90;;;;;;4982338;28;20452;-65
2023/10/26 10:59:30;;;;;;;0.30;0.30;;;12.20;99.90;;;;;;4983681;28;20429;-64
2023/10/26 11:02:14;;;;;;;0.30;0.30;;;12.30;99.90;;;;;;4989764;28;20879;-66
2023/10/26 11:04:58;;;;;;;0.30;0.30;;;12.40;99.90;;;;;;4992716;28;20449;-65
2023/10/26 11:07:27;;;;;;;0.30;0.30;;;12.50;99.90;;;;;;4994130;28;20414;-65
2023/10/26 11:09:57;;;;;;;0.30;0.30;;;12.60;99.90;;;;;;4994208;28;20792;-68
2023/10/26 11:12:23;;;;;;;0.30;0.30;;;12.70;99.90;;;;;;4989732;28;20781;-66
2023/10/26 11:14:50;;;;;;;0.30;0.30;;;12.70;99.90;;;;;;4976369;28;20426;-66
2023/10/26 11:17:18;;;;;;;0.30;0.30;;;12.70;99.90;;;;;;4995304;28;20455;-67
2023/10/26 11:19:44;;;;;;;0.30;0.30;;;12.70;99.90;;;;;;4978247;28;20400;-66
2023/10/26 11:22:13;;;;;;;0.30;0.20;;;12.80;99.90;;;;;;4994094;28;20461;-66
2023/10/26 11:24:39;;;;;;;0.30;0.30;;;12.80;99.90;;;;;;4993841;28;20972;-66
2023/10/26 11:27:06;;;;;;;0.30;0.20;;;12.90;99.90;;;;;;4994628;28;20443;-66
2023/10/26 11:29:31;;;;;;;0.30;0.30;;;13.10;99.90;;;;;;4994071;28;20524;-65
2023/10/26 11:31:57;;;;;;;0.30;0.27;;;13.20;99.90;;;;;;4994131;28;20885;-65
2023/10/26 11:34:25;;;;;;;0.30;0.30;;;13.30;99.90;;;;;;4988585;28;20187;-66
2023/10/26 11:36:52;;;;;;;0.30;0.20;;;13.40;99.90;;;;;;4983915;28;20192;-67
2023/10/26 11:39:18;;;;;;;0.30;0.30;;;13.40;99.90;;;;;;4984954;28;20434;-66
2023/10/26 11:41:53;;;;;;;0.40;0.40;;;13.30;99.90;;;;;;4984712;28;20397;-65
2023/10/26 11:44:26;;;;;;;0.30;0.27;;;13.30;99.90;;;;;;4986307;28;20187;-67
2023/10/26 11:46:59;;;;;;;0.30;0.20;;;13.40;99.90;;;;;;4992400;28;20417;-66
2023/10/26 11:49:39;;;;;;;0.30;0.20;;;13.40;99.90;;;;;;4983528;28;20484;-64
2023/10/26 11:52:05;;;;;;;0.30;0.20;;;13.30;99.90;;;;;;4993117;28;20422;-65
2023/10/26 11:54:31;;;;;;;0.30;0.20;;;13.30;99.90;;;;;;4993155;28;20463;-65
2023/10/26 11:56:57;;;;;;;0.30;0.27;;;13.30;99.90;;;;;;4993988;28;20461;-65
2023/10/26 11:59:23;;;;;;;0.30;0.27;;;13.40;99.90;;;;;;4993602;28;20426;-65
2023/10/26 12:01:48;;;;;;;0.30;0.30;;;13.40;99.90;;;;;;4992951;28;20179;-65
2023/10/26 12:04:14;;;;;;;0.30;0.30;;;13.40;99.90;;;;;;4994528;28;20252;-65
2023/10/26 12:06:39;;;;;;;0.53;0.53;;;13.50;99.90;;;;;;4999954;28;20211;-65
2023/10/26 12:09:06;;;;;;;0.30;0.20;;;13.50;99.90;;;;;;5000377;28;20175;-65
2023/10/26 12:11:32;;;;;;;0.30;0.30;;;13.50;99.90;;;;;;5000365;28;20167;-64
2023/10/26 12:13:58;;;;;;;0.30;0.30;;;13.60;99.90;;;;;;4999797;28;20506;-66
2023/10/26 12:16:24;;;;;;;0.33;0.33;;;13.70;99.90;;;;;;4998992;28;20462;-65
2023/10/26 12:18:51;;;;;;;0.30;0.20;;;13.80;99.90;;;;;;4999952;28;20420;-64
2023/10/26 12:21:16;;;;;;;0.30;0.27;;;14.00;99.90;;;;;;5000811;28;20498;-65
2023/10/26 12:23:42;;;;;;;0.30;0.30;;;14.10;99.90;;;;;;4999928;28;20520;-65
2023/10/26 12:26:07;;;;;;;0.30;0.30;;;14.20;99.90;;;;;;4999449;28;20195;-64
2023/10/26 12:28:33;;;;;;;0.30;0.30;;;14.30;99.90;;;;;;5000344;28;20183;-63
2023/10/26 12:30:59;;;;;;;0.30;0.30;;;14.50;99.90;;;;;;5000181;28;20174;-64
2023/10/26 12:33:24;;;;;;;0.30;0.30;;;14.60;99.90;;;;;;4999994;28;20185;-64
2023/10/26 12:35:50;;;;;;;0.30;0.30;;;14.60;99.90;;;;;;4981992;28;20278;-64
2023/10/26 12:38:19;;;;;;;0.30;0.30;;;14.70;99.90;;;;;;5000553;28;20526;-65
2023/10/26 12:40:48;;;;;;;0.30;0.30;;;14.70;99.90;;;;;;5001049;28;20412;-65
2023/10/26 12:43:14;;;;;;;0.30;0.20;;;14.70;99.90;;;;;;4999718;28;20475;-66
2023/10/26 12:45:40;;;;;;;0.30;0.30;;;14.80;99.90;;;;;;4998261;28;20500;-65
2023/10/26 12:48:05;;;;;;;0.30;0.20;;;14.80;99.90;;;;;;4984614;28;20483;-66
2023/10/26 12:50:31;;;;;;;0.30;0.20;;;14.80;99.90;;;;;;4982172;28;20495;-65
2023/10/26 12:52:57;;;;;;;0.30;0.30;;;14.80;99.90;;;;;;5000076;28;20177;-65
2023/10/26 12:55:23;;;;;;;0.30;0.20;;;14.80;99.90;;;;;;4999511;28;20197;-65
2023/10/26 12:57:51;;;;;;;0.30;0.30;;;14.80;99.90;;;;;;4999841;28;20183;-65
2023/10/26 13:00:17;;;;;;;0.30;0.30;;;14.80;99.90;;;;;;4999854;28;20468;-66
2023/10/26 13:02:42;;;;;;;0.30;0.20;;;14.80;99.90;;;;;;4999939;28;20530;-65
2023/10/26 13:05:08;;;;;;;0.30;0.30;;;14.80;99.90;;;;;;4999118;28;20518;-65
2023/10/26 13:07:34;;;;;;;0.30;0.30;;;14.90;99.90;;;;;;4999643;28;20682;-66
2023/10/26 13:09:59;;;;;;;0.30;0.30;;;14.90;99.90;;;;;;4998424;28;20435;-65
2023/10/26 13:12:25;;;;;;;0.30;0.20;;;15.00;99.90;;;;;;4999612;28;20271;-66
2023/10/26 13:14:51;;;;;;;0.30;0.20;;;15.00;99.90;;;;;;4999343;28;20185;-66
2023/10/26 13:17:16;;;;;;;0.30;0.30;;;15.00;99.90;;;;;;4996405;28;20172;-65
2023/10/26 13:19:42;;;;;;;0.97;0.97;;;15.10;99.90;;;;;;4996441;28;20212;-65
2023/10/26 13:22:07;;;;;;;0.30;0.30;;;15.10;99.90;;;;;;4978678;28;20698;-66
2023/10/26 13:24:33;;;;;;;0.30;0.20;;;15.20;99.90;;;;;;4996249;28;20176;-66
2023/10/26 13:26:59;;;;;;;0.30;0.23;;;15.20;99.90;;;;;;4996734;28;20249;-66
2023/10/26 13:29:24;;;;;;;0.30;0.20;;;15.10;99.90;;;;;;4996117;28;20186;-66
2023/10/26 13:31:50;;;;;;;0.30;0.20;;;15.20;99.90;;;;;;4996201;28;20170;-66
2023/10/26 13:34:15;;;;;;;0.40;0.40;;;15.10;99.90;;;;;;4995480;28;20176;-66
2023/10/26 13:36:41;;;;;;;0.30;0.30;;;15.10;99.90;;;;;;4996140;28;20201;-66
2023/10/26 13:39:06;;;;;;;0.40;0.40;;;15.00;99.90;;;;;;4996298;28;20188;-66
2023/10/26 13:41:32;;;;;;;0.30;0.30;;;15.00;99.90;;;;;;4995660;28;20274;-66
2023/10/26 13:43:58;;;;;;;0.40;0.33;;;15.00;99.90;;;;;;4995142;28;20211;-66
2023/10/26 13:46:24;;;;;;;0.30;0.30;;;15.00;99.90;;;;;;4995590;28;20204;-66
2023/10/26 13:48:50;;;;;;;0.30;0.30;;;15.10;99.90;;;;;;4995673;28;20400;-66
2023/10/26 13:51:19;;;;;;;0.30;0.30;;;15.00;99.90;;;;;;4995927;28;20184;-66
2023/10/26 13:53:45;;;;;;;0.30;0.30;;;15.10;99.90;;;;;;4995980;28;20176;-66
2023/10/26 13:56:10;;;;;;;0.30;0.20;;;15.00;99.90;;;;;;4995470;28;20599;-65
2023/10/26 13:58:36;;;;;;;0.30;0.30;;;15.00;99.90;;;;;;4996078;28;20906;-66
2023/10/26 14:01:01;;;;;;;0.30;0.30;;;15.00;99.90;;;;;;4995829;28;20200;-66
2023/10/26 14:03:27;;;;;;;0.30;0.30;;;14.90;99.90;;;;;;4995372;28;20205;-66
2023/10/26 14:05:53;;;;;;;0.30;0.30;;;14.80;99.90;;;;;;4994752;28;20239;-66
2023/10/26 14:08:21;;;;;;;0.30;0.20;;;14.70;99.90;;;;;;4995924;28;20243;-66
2023/10/26 14:10:47;;;;;;;0.30;0.30;;;14.60;99.90;;;;;;4995835;28;20191;-66
2023/10/26 14:13:13;;;;;;;0.83;0.83;;;14.60;99.90;;;;;;4995512;28;20458;-66
2023/10/26 14:15:39;;;;;;;0.30;0.30;;;14.60;99.90;;;;;;4994577;28;20199;-66
2023/10/26 14:18:04;;;;;;;0.30;0.30;;;14.60;99.90;;;;;;4995585;28;20929;-66
2023/10/26 14:20:30;;;;;;;0.30;0.30;;;14.60;99.90;;;;;;4995312;28;20242;-67
2023/10/26 14:22:55;;;;;;;0.30;0.20;;;14.60;99.90;;;;;;4995105;28;20656;-66
2023/10/26 14:25:21;;;;;;;0.37;0.37;;;14.60;99.90;;;;;;4994690;28;20250;-67
2023/10/26 14:27:47;;;;;;;0.30;0.30;;;14.60;99.90;;;;;;4993766;28;20172;-67
2023/10/26 14:30:12;;;;;;;0.30;0.20;;;14.60;99.90;;;;;;4995201;28;20557;-66
2023/10/26 14:32:38;;;;;;;0.30;0.30;;;14.60;99.90;;;;;;4994177;28;20179;-67
2023/10/26 14:35:04;;;;;;;0.30;0.30;;;14.70;99.90;;;;;;4994366;28;20500;-66
2023/10/26 14:37:30;;;;;;;0.30;0.20;;;14.70;99.90;;;;;;4994837;28;20597;-66
2023/10/26 14:39:55;;;;;;;0.30;0.30;;;14.70;99.90;;;;;;4993968;28;20938;-67
2023/10/26 14:42:21;;;;;;;0.30;0.30;;;14.70;99.90;;;;;;4994756;28;20199;-67
2023/10/26 14:44:47;;;;;;;0.40;0.40;;;14.70;99.90;;;;;;4993852;28;20171;-69
2023/10/26 14:47:13;;;;;;;0.30;0.30;;;14.70;99.90;;;;;;4976515;28;20172;-68
2023/10/26 14:49:38;;;;;;;0.30;0.20;;;14.60;99.90;;;;;;4987256;28;20419;-68
2023/10/26 14:52:04;;;;;;;0.30;0.30;;;14.60;99.90;;;;;;4993718;28;20188;-70
2023/10/26 14:54:30;;;;;;;0.30;0.30;;;14.70;99.90;;;;;;4993246;28;20266;-70
2023/10/26 14:56:57;;;;;;;0.30;0.30;;;14.60;99.90;;;;;;4994914;28;20182;-68
2023/10/26 14:59:23;;;;;;;0.43;0.43;;;14.70;99.90;;;;;;4994742;28;20407;-69
2023/10/26 15:01:49;;;;;;;0.30;0.30;;;14.60;99.90;;;;;;4992760;28;20456;-68
2023/10/26 15:04:14;;;;;;;0.30;0.20;;;14.60;99.90;;;;;;4993935;28;20432;-68
2023/10/26 15:06:40;;;;;;;0.30;0.20;;;14.60;99.90;;;;;;4994240;28;20428;-71
2023/10/26 15:09:06;;;;;;;0.30;0.20;;;14.60;99.90;;;;;;4976921;28;20436;-70
2023/10/26 15:11:32;;;;;;;0.30;0.30;;;14.60;99.90;;;;;;4992639;28;20420;-71
2023/10/26 15:13:58;;;;;;;0.30;0.20;;;14.70;99.90;;;;;;4993543;28;20199;-71
2023/10/26 15:16:26;;;;;;;1.80;0.67;;;14.70;99.90;;;;;;4994297;28;20661;-69
2023/10/26 15:18:51;;;;;;;0.30;0.20;;;14.70;99.90;;;;;;4992512;28;20167;-70
2023/10/26 15:21:17;;;;;;;0.37;0.37;;;14.70;99.90;;;;;;4993917;28;20935;-69
2023/10/26 15:23:43;;;;;;;0.30;0.30;;;14.70;99.90;;;;;;4993607;28;20207;-67
2023/10/26 15:26:08;;;;;;;0.30;0.30;;;14.60;99.90;;;;;;4994071;28;20267;-68
2023/10/26 15:28:34;;;;;;;0.30;0.20;;;14.60;99.90;;;;;;4993969;28;20175;-70
2023/10/26 15:31:00;;;;;;;0.30;0.20;;;14.60;99.90;;;;;;4994044;28;20171;-67
2023/10/26 15:33:26;;;;;;;0.30;0.30;;;14.50;99.90;;;;;;4993961;28;20193;-68
2023/10/26 15:35:52;;;;;;;0.30;0.30;;;14.60;99.90;;;;;;4993556;28;20442;-70
2023/10/26 15:38:18;;;;;;;0.30;0.27;;;14.60;99.90;;;;;;4993323;28;20403;-68
2023/10/26 15:40:43;;;;;;;0.30;0.20;;;14.60;99.90;;;;;;4984762;28;20419;-67
2023/10/26 15:43:11;;;;;;;0.30;0.30;;;14.60;99.90;;;;;;4988432;28;20214;-68
2023/10/26 15:45:37;;;;;;;0.30;0.20;;;14.60;99.90;;;;;;4972880;28;20192;-68
2023/10/26 15:48:02;;;;;;;0.30;0.20;;;14.50;99.90;;;;;;4974522;28;20421;-71
2023/10/26 15:50:28;;;;;;;0.30;0.20;;;14.50;99.90;;;;;;4974749;28;20260;-65
2023/10/26 15:52:54;;;;;;;0.30;0.30;;;14.50;99.90;;;;;;4989565;28;20191;-67
2023/10/26 15:55:20;;;;;;;0.30;0.30;;;14.50;99.90;;;;;;4991874;28;20451;-68
2023/10/26 15:57:45;;;;;;;0.40;0.40;;;14.50;99.90;;;;;;4993419;28;20179;-65
2023/10/26 16:00:11;;;;;;;0.30;0.30;;;14.40;99.90;;;;;;4993939;28;20260;-68
2023/10/26 16:02:37;;;;;;;0.30;0.30;;;14.40;99.90;;;;;;4993369;28;20199;-64
2023/10/26 16:05:06;;;;;;;0.30;0.30;;;14.30;99.90;;;;;;4984360;28;20450;-68
2023/10/26 16:07:37;;;;;;;0.30;0.20;;;14.30;99.90;;;;;;4984853;28;20198;-65
2023/10/26 16:10:03;;;;;;;0.30;0.20;;;14.30;99.90;;;;;;4974221;28;20450;-67
2023/10/26 16:12:29;;;;;;;0.30;0.20;;;14.20;99.90;;;;;;4989723;28;20928;-66
2023/10/26 16:14:54;;;;;;;0.30;0.20;;;14.10;99.90;;;;;;4992243;28;20195;-65
2023/10/26 16:17:20;;;;;;;0.30;0.30;;;14.10;99.90;;;;;;4982642;28;20234;-65
2023/10/26 16:19:45;;;;;;;0.40;0.40;;;14.10;99.90;;;;;;4982916;28;20176;-68
2023/10/26 16:22:12;;;;;;;0.30;0.30;;;14.00;99.90;;;;;;4993118;28;20231;-66
2023/10/26 16:24:38;;;;;;;0.30;0.20;;;14.00;99.90;;;;;;4992984;28;20171;-65
2023/10/26 16:27:03;;;;;;;0.30;0.20;;;13.90;99.90;;;;;;4993243;28;20414;-65
2023/10/26 16:29:30;;;;;;;0.30;0.30;;;13.90;99.90;;;;;;4993916;28;20214;-64
2023/10/26 16:31:55;;;;;;;0.30;0.30;;;13.80;99.90;;;;;;4989945;28;20262;-63
2023/10/26 16:34:21;;;;;;;0.30;0.20;;;13.80;99.90;;;;;;4992016;28;20856;-66
2023/10/26 16:36:47;;;;;;;0.30;0.20;;;13.70;99.90;;;;;;4992839;28;20250;-69
2023/10/26 16:39:12;;;;;;;0.30;0.30;;;13.70;99.90;;;;;;4993219;28;20168;-65
2023/10/26 16:41:38;;;;;;;0.30;0.30;;;13.70;99.90;;;;;;4993461;28;20257;-66
2023/10/26 16:44:04;;;;;;;0.30;0.30;;;13.60;99.90;;;;;;4992739;28;20210;-63
2023/10/26 16:46:31;;;;;;;0.30;0.30;;;13.60;99.90;;;;;;4992487;28;20252;-68
2023/10/26 16:48:57;;;;;;;0.30;0.20;;;13.60;99.90;;;;;;4993494;28;20180;-65
2023/10/26 16:51:23;;;;;;;0.30;0.30;;;13.60;99.90;;;;;;4994025;28;20410;-66